Time;durP1;ratioP1;P1;durP2;ratioP2;P2;SDS_P1;SDS_P2;PMS_P1;PMS_P2;Temp;Humidity;BMP_temperature;BMP_pressure;BME280_temperature;BME280_humidity;BME280_pressure;Samples;Min_cycle;Max_cycle;Signal;HPM_P1;HPM_P2
2021/07/09 00:02:21;;;;;;;2.55;1.30;;;;;;;;;;5011767;28;20120;-77
2021/07/09 00:04:49;;;;;;;2.15;1.10;;;;;;;;;;5012078;28;20054;-77
2021/07/09 00:07:16;;;;;;;2.08;0.95;;;;;;;;;;5014030;28;20053;-77
2021/07/09 00:09:46;;;;;;;1.33;1.00;;;;;;;;;;5016351;28;20099;-77
2021/07/09 00:12:13;;;;;;;2.75;1.15;;;;;;;;;;5028193;28;20125;-77
2021/07/09 00:14:40;;;;;;;1.48;0.93;;;;;;;;;;5035946;28;20107;-77
2021/07/09 00:17:07;;;;;;;2.30;1.08;;;;;;;;;;5035876;28;20045;-77
2021/07/09 00:19:34;;;;;;;2.03;1.10;;;;;;;;;;5036044;28;20068;-77
2021/07/09 00:22:03;;;;;;;2.60;1.40;;;;;;;;;;5035476;28;20084;-77
2021/07/09 00:24:30;;;;;;;1.85;1.17;;;;;;;;;;5035878;28;20046;-77
2021/07/09 00:26:57;;;;;;;2.42;1.40;;;;;;;;;;5035749;28;20635;-77
2021/07/09 00:29:23;;;;;;;3.08;1.35;;;;;;;;;;5035799;28;20096;-77
2021/07/09 00:31:50;;;;;;;2.92;1.50;;;;;;;;;;5035164;28;20054;-77
2021/07/09 00:34:19;;;;;;;2.83;1.38;;;;;;;;;;5035511;28;20099;-77
2021/07/09 00:36:46;;;;;;;3.05;1.40;;;;;;;;;;5035485;28;20053;-77
2021/07/09 00:39:14;;;;;;;3.92;1.58;;;;;;;;;;5035644;28;20045;-77
2021/07/09 00:41:41;;;;;;;2.30;1.48;;;;;;;;;;5035143;28;20041;-77
2021/07/09 00:44:08;;;;;;;2.90;1.70;;;;;;;;;;5035416;28;20045;-77
2021/07/09 00:46:36;;;;;;;3.60;1.60;;;;;;;;;;5035282;28;20127;-77
2021/07/09 00:49:04;;;;;;;4.07;1.80;;;;;;;;;;5035298;28;20391;-77
2021/07/09 00:51:31;;;;;;;4.93;1.80;;;;;;;;;;5034866;28;20050;-77
2021/07/09 00:53:58;;;;;;;3.25;1.60;;;;;;;;;;5035202;28;20049;-76
2021/07/09 00:56:26;;;;;;;3.72;1.45;;;;;;;;;;5035313;28;20053;-76
2021/07/09 00:58:55;;;;;;;2.78;1.30;;;;;;;;;;5035150;28;20107;-77
2021/07/09 01:01:22;;;;;;;2.67;1.30;;;;;;;;;;5021828;28;20081;-77
2021/07/09 01:03:49;;;;;;;1.98;1.23;;;;;;;;;;5015143;28;20108;-77
2021/07/09 01:06:16;;;;;;;1.73;1.10;;;;;;;;;;5015227;28;20046;-76
2021/07/09 01:08:43;;;;;;;1.50;0.90;;;;;;;;;;5015322;28;20104;-77
2021/07/09 01:11:10;;;;;;;2.53;1.08;;;;;;;;;;5018108;28;20049;-77
2021/07/09 01:13:40;;;;;;;1.45;0.90;;;;;;;;;;5034543;28;20077;-77
2021/07/09 01:16:06;;;;;;;2.55;0.95;;;;;;;;;;5034661;28;20123;-77
2021/07/09 01:18:34;;;;;;;1.83;1.13;;;;;;;;;;5034561;28;20045;-77
2021/07/09 01:21:07;;;;;;;2.70;1.02;;;;;;;;;;5034244;28;20103;-77
2021/07/09 01:23:34;;;;;;;1.58;1.00;;;;;;;;;;5034586;28;20057;-76
2021/07/09 01:26:02;;;;;;;3.58;1.20;;;;;;;;;;5034594;28;20091;-76
2021/07/09 01:28:29;;;;;;;2.33;1.10;;;;;;;;;;5034454;28;20046;-78
2021/07/09 01:30:56;;;;;;;1.88;1.00;;;;;;;;;;5034733;28;20049;-78
2021/07/09 01:33:23;;;;;;;3.15;1.27;;;;;;;;;;5034365;28;20461;-78
2021/07/09 01:35:49;;;;;;;2.20;1.38;;;;;;;;;;5034352;28;20045;-76
2021/07/09 01:38:16;;;;;;;2.00;1.00;;;;;;;;;;5034453;28;20045;-77
2021/07/09 01:40:43;;;;;;;2.25;1.20;;;;;;;;;;5034264;28;20045;-76
2021/07/09 01:43:11;;;;;;;2.13;1.27;;;;;;;;;;5034284;28;20103;-76
2021/07/09 01:45:38;;;;;;;2.08;1.20;;;;;;;;;;5034430;28;20045;-76
2021/07/09 01:48:06;;;;;;;1.63;0.90;;;;;;;;;;5034262;28;20083;-76
2021/07/09 01:50:34;;;;;;;1.30;0.73;;;;;;;;;;5033908;28;20119;-76
2021/07/09 01:53:01;;;;;;;1.58;0.88;;;;;;;;;;5034090;28;20049;-77
2021/07/09 01:55:28;;;;;;;1.75;0.90;;;;;;;;;;5034003;28;20050;-77
2021/07/09 01:57:54;;;;;;;1.58;0.88;;;;;;;;;;5033731;28;20046;-78
2021/07/09 02:00:24;;;;;;;1.75;0.90;;;;;;;;;;5029520;28;20046;-77
2021/07/09 02:02:51;;;;;;;1.88;0.80;;;;;;;;;;5014267;28;20096;-77
2021/07/09 02:05:20;;;;;;;1.85;0.93;;;;;;;;;;5014209;28;20126;-77
2021/07/09 02:07:49;;;;;;;1.75;0.70;;;;;;;;;;5014270;28;20107;-77
2021/07/09 02:10:19;;;;;;;1.23;0.82;;;;;;;;;;5014304;28;20045;-76
2021/07/09 02:16:09;;;;;;;2.05;0.70;;;;;;;;;;5746604;22;20038;-76
2021/07/09 02:18:38;;;;;;;1.00;0.60;;;;;;;;;;5010107;28;20052;-76
2021/07/09 02:21:04;;;;;;;1.15;0.70;;;;;;;;;;5013761;28;20085;-75
2021/07/09 02:23:31;;;;;;;1.17;0.77;;;;;;;;;;5013924;28;20096;-75
2021/07/09 02:25:58;;;;;;;0.85;0.60;;;;;;;;;;5001561;28;20078;-75
2021/07/09 02:28:24;;;;;;;0.60;0.50;;;;;;;;;;4994530;28;20085;-75
2021/07/09 02:30:51;;;;;;;1.23;0.60;;;;;;;;;;4993667;28;20089;-75
2021/07/09 02:33:18;;;;;;;1.35;0.63;;;;;;;;;;4994182;28;20092;-75
2021/07/09 02:35:46;;;;;;;0.75;0.40;;;;;;;;;;4993249;28;20086;-74
2021/07/09 02:38:13;;;;;;;0.50;0.40;;;;;;;;;;4994151;28;20089;-75
2021/07/09 02:44:01;;;;;;;0.40;0.30;;;;;;;;;;4990857;28;20041;-75
2021/07/09 02:46:28;;;;;;;0.50;0.45;;;;;;;;;;4992886;28;20046;-73
2021/07/09 02:52:21;;;;;;;0.63;0.38;;;;;;;;;;4990244;28;20565;-73
2021/07/09 02:54:47;;;;;;;;;;;;;;;;;;4993720;28;20081;-73
2021/07/09 02:57:14;;;;;;;0.50;0.32;;;;;;;;;;4994458;28;19926;-73
2021/07/09 02:59:40;;;;;;;0.82;0.40;;;;;;;;;;4994100;28;20069;-72
2021/07/09 03:02:07;;;;;;;0.40;0.20;;;;;;;;;;4993858;28;20078;-73
2021/07/09 03:04:34;;;;;;;0.55;0.20;;;;;;;;;;4993686;28;20105;-73
2021/07/09 03:07:01;;;;;;;0.30;0.20;;;;;;;;;;4993508;28;20073;-73
2021/07/09 03:09:29;;;;;;;0.38;0.20;;;;;;;;;;4993431;28;20089;-76
2021/07/09 03:11:58;;;;;;;0.52;0.30;;;;;;;;;;5002873;28;20081;-76
2021/07/09 03:14:25;;;;;;;0.20;0.20;;;;;;;;;;5012964;28;20533;-76
2021/07/09 03:16:51;;;;;;;0.40;0.30;;;;;;;;;;5012073;28;20081;-77
2021/07/09 03:19:19;;;;;;;0.38;0.30;;;;;;;;;;5012642;28;20070;-76
2021/07/09 03:21:46;;;;;;;0.35;0.20;;;;;;;;;;5012515;28;20085;-72
2021/07/09 03:24:12;;;;;;;0.85;0.30;;;;;;;;;;5012678;28;20406;-73
2021/07/09 03:26:41;;;;;;;0.55;0.40;;;;;;;;;;5011891;28;20081;-73
2021/07/09 03:29:07;;;;;;;0.20;0.20;;;;;;;;;;5012797;28;20082;-72
2021/07/09 03:31:34;;;;;;;0.35;0.30;;;;;;;;;;5012454;28;20513;-73
2021/07/09 03:34:01;;;;;;;0.55;0.40;;;;;;;;;;5012471;28;20046;-74
2021/07/09 03:36:29;;;;;;;1.45;0.40;;;;;;;;;;5011770;28;20085;-73
2021/07/09 03:38:57;;;;;;;0.70;0.30;;;;;;;;;;5012355;28;20089;-74
2021/07/09 03:41:24;;;;;;;4.38;0.40;;;;;;;;;;5012811;28;20045;-73
2021/07/09 03:43:52;;;;;;;0.65;0.30;;;;;;;;;;5015106;28;20084;-75
2021/07/09 03:46:19;;;;;;;1.52;0.60;;;;;;;;;;5013346;28;20464;-74
2021/07/09 03:48:46;;;;;;;0.60;0.30;;;;;;;;;;5014647;28;20078;-73
2021/07/09 03:51:13;;;;;;;1.08;0.40;;;;;;;;;;5012507;28;20088;-73
2021/07/09 03:53:40;;;;;;;1.15;0.47;;;;;;;;;;5012475;28;20215;-73
2021/07/09 03:56:06;;;;;;;0.30;0.30;;;;;;;;;;5011519;28;20129;-73
2021/07/09 03:58:33;;;;;;;0.85;0.32;;;;;;;;;;5012258;28;20085;-73
2021/07/09 04:01:02;;;;;;;0.32;0.32;;;;;;;;;;5004012;28;20049;-77
2021/07/09 04:03:28;;;;;;;0.90;0.50;;;;;;;;;;4994174;28;20046;-77
2021/07/09 04:05:55;;;;;;;1.08;0.40;;;;;;;;;;4993501;28;20078;-77
2021/07/09 04:08:22;;;;;;;1.10;0.40;;;;;;;;;;4993968;28;20077;-76
2021/07/09 04:10:48;;;;;;;1.20;0.52;;;;;;;;;;4993474;28;20078;-76
2021/07/09 04:13:15;;;;;;;0.90;0.50;;;;;;;;;;5012261;28;20498;-75
2021/07/09 04:15:42;;;;;;;1.10;0.50;;;;;;;;;;5011432;28;20085;-74
2021/07/09 04:18:10;;;;;;;1.77;0.70;;;;;;;;;;5012010;28;20151;-76
2021/07/09 04:20:37;;;;;;;1.17;0.60;;;;;;;;;;5012033;28;20085;-74
2021/07/09 04:23:04;;;;;;;0.85;0.47;;;;;;;;;;5012056;28;20100;-74
2021/07/09 04:25:31;;;;;;;1.85;0.80;;;;;;;;;;5011433;28;20085;-74
2021/07/09 04:27:58;;;;;;;0.90;0.50;;;;;;;;;;5011799;28;20089;-73
2021/07/09 04:30:25;;;;;;;1.20;0.70;;;;;;;;;;5011795;28;20136;-74
2021/07/09 04:32:52;;;;;;;1.05;0.63;;;;;;;;;;5012177;28;20148;-73
2021/07/09 04:35:20;;;;;;;1.67;0.75;;;;;;;;;;5011396;28;20081;-73
2021/07/09 04:37:47;;;;;;;0.82;0.60;;;;;;;;;;5012042;28;20483;-74
2021/07/09 04:40:15;;;;;;;1.00;0.70;;;;;;;;;;5012154;28;20481;-74
2021/07/09 04:42:42;;;;;;;1.30;0.68;;;;;;;;;;5011708;28;20042;-73
2021/07/09 04:45:09;;;;;;;0.88;0.70;;;;;;;;;;5011636;28;20077;-73
2021/07/09 04:47:36;;;;;;;1.25;0.70;;;;;;;;;;5011699;28;20110;-74
2021/07/09 04:50:04;;;;;;;1.85;1.05;;;;;;;;;;5011782;28;20085;-74
2021/07/09 04:52:32;;;;;;;1.70;0.90;;;;;;;;;;5012367;28;20491;-73
2021/07/09 04:54:59;;;;;;;2.00;0.80;;;;;;;;;;5014871;28;20045;-73
2021/07/09 04:57:26;;;;;;;1.95;1.00;;;;;;;;;;5015277;28;20468;-74
2021/07/09 04:59:52;;;;;;;2.85;1.02;;;;;;;;;;5015131;28;20085;-76
2021/07/09 05:02:20;;;;;;;1.40;0.75;;;;;;;;;;4996273;28;20074;-74
2021/07/09 05:04:46;;;;;;;1.60;0.80;;;;;;;;;;4995102;28;20057;-74
2021/07/09 05:07:13;;;;;;;1.70;1.00;;;;;;;;;;4995628;28;20046;-74
2021/07/09 05:09:41;;;;;;;2.60;0.90;;;;;;;;;;4995503;28;20050;-74
2021/07/09 05:12:08;;;;;;;3.88;1.30;;;;;;;;;;5006689;28;20077;-73
2021/07/09 05:14:34;;;;;;;1.38;0.80;;;;;;;;;;5014852;28;20104;-78
2021/07/09 05:17:01;;;;;;;2.05;0.90;;;;;;;;;;5015572;28;20084;-76
2021/07/09 05:19:28;;;;;;;3.05;0.90;;;;;;;;;;5016528;28;20422;-75
2021/07/09 05:21:55;;;;;;;3.15;1.20;;;;;;;;;;5017568;28;20089;-76
2021/07/09 05:24:25;;;;;;;1.80;1.05;;;;;;;;;;5015079;28;20108;-76
2021/07/09 05:26:53;;;;;;;2.13;1.10;;;;;;;;;;5014609;28;20049;-77
2021/07/09 05:29:20;;;;;;;2.47;1.20;;;;;;;;;;5015214;28;20065;-76
2021/07/09 05:31:47;;;;;;;2.03;0.98;;;;;;;;;;5015048;28;20104;-76
2021/07/09 05:34:13;;;;;;;2.00;1.20;;;;;;;;;;5016420;28;20078;-76
2021/07/09 05:36:41;;;;;;;2.25;1.00;;;;;;;;;;5015956;28;20053;-77
2021/07/09 05:39:10;;;;;;;2.20;1.10;;;;;;;;;;5015831;28;20085;-77
2021/07/09 05:41:36;;;;;;;1.95;0.90;;;;;;;;;;5015487;28;20487;-77
2021/07/09 05:44:05;;;;;;;1.88;1.00;;;;;;;;;;5015466;28;20460;-75
2021/07/09 05:46:32;;;;;;;2.45;1.20;;;;;;;;;;5014192;28;20081;-76
2021/07/09 05:48:59;;;;;;;2.22;1.00;;;;;;;;;;5015176;28;20077;-77
2021/07/09 05:51:25;;;;;;;2.17;1.00;;;;;;;;;;5016583;28;20526;-76
2021/07/09 05:53:52;;;;;;;2.35;1.00;;;;;;;;;;5017334;28;20102;-77
2021/07/09 05:56:19;;;;;;;2.08;1.02;;;;;;;;;;5015136;28;20097;-77
2021/07/09 05:58:45;;;;;;;1.48;0.90;;;;;;;;;;5015439;28;20112;-75
2021/07/09 06:01:13;;;;;;;1.30;0.90;;;;;;;;;;5015644;28;20077;-73
2021/07/09 06:03:40;;;;;;;1.70;0.80;;;;;;;;;;5013777;28;20049;-74
2021/07/09 06:06:07;;;;;;;2.80;0.80;;;;;;;;;;5012791;28;20161;-74
2021/07/09 06:08:34;;;;;;;1.55;0.80;;;;;;;;;;5014230;28;20081;-74
2021/07/09 06:11:00;;;;;;;1.52;0.90;;;;;;;;;;5011702;28;20564;-73
2021/07/09 06:13:27;;;;;;;1.60;0.88;;;;;;;;;;4993982;28;20630;-74
2021/07/09 06:15:55;;;;;;;1.27;0.80;;;;;;;;;;4993600;28;20077;-74
2021/07/09 06:18:23;;;;;;;1.98;0.98;;;;;;;;;;4994116;28;20077;-74
2021/07/09 06:20:49;;;;;;;1.30;0.80;;;;;;;;;;4994147;28;20081;-74
2021/07/09 06:23:16;;;;;;;3.08;0.88;;;;;;;;;;4994312;28;20431;-76
2021/07/09 06:25:43;;;;;;;1.65;0.85;;;;;;;;;;4993794;28;20046;-74
2021/07/09 06:28:10;;;;;;;2.03;0.75;;;;;;;;;;4994287;28;20089;-74
2021/07/09 06:30:37;;;;;;;1.15;0.68;;;;;;;;;;4994132;28;20073;-75
2021/07/09 06:33:07;;;;;;;2.28;0.90;;;;;;;;;;4994362;28;20078;-74
2021/07/09 06:35:36;;;;;;;1.60;1.10;;;;;;;;;;4993675;28;20047;-73
2021/07/09 06:38:03;;;;;;;1.73;0.90;;;;;;;;;;4994230;28;20082;-73
2021/07/09 06:40:29;;;;;;;2.58;1.20;;;;;;;;;;4993854;28;20093;-73
2021/07/09 06:42:56;;;;;;;2.00;1.10;;;;;;;;;;4994161;28;20086;-74
2021/07/09 06:45:23;;;;;;;1.25;0.88;;;;;;;;;;4993533;28;20082;-73
2021/07/09 06:47:50;;;;;;;3.00;1.15;;;;;;;;;;4993770;28;20046;-74
2021/07/09 06:50:17;;;;;;;3.80;1.20;;;;;;;;;;4993815;28;20050;-74
2021/07/09 06:52:45;;;;;;;3.17;1.30;;;;;;;;;;4993899;28;20414;-74
2021/07/09 06:55:13;;;;;;;1.92;1.17;;;;;;;;;;4992952;28;20047;-76
2021/07/09 06:57:46;;;;;;;2.33;1.10;;;;;;;;;;4993789;28;20097;-74
2021/07/09 07:00:14;;;;;;;2.03;1.30;;;;;;;;;;4994358;28;20093;-74
2021/07/09 07:02:41;;;;;;;2.13;1.27;;;;;;;;;;4981504;28;20047;-74
2021/07/09 07:05:09;;;;;;;3.03;1.27;;;;;;;;;;4981924;28;20058;-74
2021/07/09 07:07:36;;;;;;;2.20;1.20;;;;;;;;;;4991919;28;20108;-75
2021/07/09 07:10:04;;;;;;;2.45;1.45;;;;;;;;;;4993461;28;20051;-76
2021/07/09 07:12:33;;;;;;;3.75;1.65;;;;;;;;;;5006824;28;20077;-73
2021/07/09 07:15:02;;;;;;;3.97;1.70;;;;;;;;;;5010298;28;20064;-73
2021/07/09 07:17:29;;;;;;;3.13;1.40;;;;;;;;;;5010901;28;20046;-74
2021/07/09 07:19:55;;;;;;;2.42;1.40;;;;;;;;;;5011491;28;20069;-76
2021/07/09 07:22:22;;;;;;;3.15;1.75;;;;;;;;;;5011172;28;20155;-74
2021/07/09 07:24:51;;;;;;;3.83;1.60;;;;;;;;;;5010277;28;20073;-75
2021/07/09 07:27:21;;;;;;;3.40;1.50;;;;;;;;;;5013133;28;20046;-77
2021/07/09 07:29:48;;;;;;;3.33;1.83;;;;;;;;;;5013226;28;20073;-76
2021/07/09 07:32:15;;;;;;;3.15;1.80;;;;;;;;;;5012809;28;20272;-77
2021/07/09 07:34:42;;;;;;;4.97;1.60;;;;;;;;;;5012803;28;20100;-77
2021/07/09 07:37:09;;;;;;;3.80;1.88;;;;;;;;;;5013360;28;20045;-77
2021/07/09 07:39:36;;;;;;;3.22;1.80;;;;;;;;;;5012468;28;20046;-76
2021/07/09 07:42:03;;;;;;;3.80;1.70;;;;;;;;;;5010816;28;20077;-74
2021/07/09 07:44:31;;;;;;;3.05;1.95;;;;;;;;;;5010545;28;20092;-72
2021/07/09 07:46:58;;;;;;;3.20;1.52;;;;;;;;;;5004956;28;20074;-73
2021/07/09 07:49:26;;;;;;;3.92;1.70;;;;;;;;;;5010589;28;20094;-75
2021/07/09 07:51:54;;;;;;;4.00;1.83;;;;;;;;;;5011157;28;20077;-74
2021/07/09 07:54:21;;;;;;;5.57;2.00;;;;;;;;;;5010272;28;20096;-74
2021/07/09 07:56:47;;;;;;;3.40;2.10;;;;;;;;;;5010106;28;20095;-73
2021/07/09 07:59:14;;;;;;;3.55;2.00;;;;;;;;;;5010413;28;20085;-74
2021/07/09 08:01:42;;;;;;;4.25;2.20;;;;;;;;;;5010223;28;20081;-74
2021/07/09 08:04:09;;;;;;;3.67;2.20;;;;;;;;;;5010188;28;20058;-73
2021/07/09 08:06:36;;;;;;;4.22;2.00;;;;;;;;;;5010308;28;20124;-75
2021/07/09 08:09:04;;;;;;;3.65;2.00;;;;;;;;;;5010014;28;20084;-73
2021/07/09 08:11:30;;;;;;;3.83;2.30;;;;;;;;;;5004202;28;20101;-74
2021/07/09 08:13:57;;;;;;;3.60;2.22;;;;;;;;;;4991140;28;20113;-74
2021/07/09 08:16:24;;;;;;;2.72;1.77;;;;;;;;;;4991166;28;20081;-74
2021/07/09 08:18:52;;;;;;;5.07;1.80;;;;;;;;;;4992143;28;20078;-76
2021/07/09 08:21:18;;;;;;;4.05;2.25;;;;;;;;;;4991156;28;20082;-73
2021/07/09 08:23:45;;;;;;;4.55;2.50;;;;;;;;;;4995035;28;20097;-73
2021/07/09 08:26:12;;;;;;;3.15;1.60;;;;;;;;;;4994456;28;20051;-72
2021/07/09 08:28:39;;;;;;;3.13;1.67;;;;;;;;;;4998723;28;20112;-74
2021/07/09 08:31:06;;;;;;;3.55;1.95;;;;;;;;;;5000617;28;20046;-77
2021/07/09 08:33:33;;;;;;;2.80;1.70;;;;;;;;;;5000035;28;20125;-76
2021/07/09 08:36:01;;;;;;;3.60;1.60;;;;;;;;;;4997710;28;20082;-76
2021/07/09 08:38:28;;;;;;;3.25;1.60;;;;;;;;;;4997172;28;20046;-76
2021/07/09 08:40:55;;;;;;;4.13;1.92;;;;;;;;;;4997673;28;20096;-77
2021/07/09 08:43:21;;;;;;;3.22;1.80;;;;;;;;;;4998100;28;20075;-79
2021/07/09 08:45:48;;;;;;;4.28;1.95;;;;;;;;;;4998089;28;20483;-81
2021/07/09 08:48:16;;;;;;;2.35;1.60;;;;;;;;;;4995221;28;20054;-76
2021/07/09 08:50:43;;;;;;;3.72;1.67;;;;;;;;;;4995286;28;20074;-74
2021/07/09 08:53:11;;;;;;;3.38;1.92;;;;;;;;;;4995383;28;20090;-76
2021/07/09 08:55:39;;;;;;;3.80;2.53;;;;;;;;;;4996279;28;20105;-76
2021/07/09 08:58:06;;;;;;;3.13;1.88;;;;;;;;;;4997048;28;20116;-75
2021/07/09 09:00:43;;;;;;;3.47;1.70;;;;;;;;;;4995521;28;20388;-75
2021/07/09 09:03:18;;;;;;;3.60;1.77;;;;;;;;;;4996931;28;20072;-77
2021/07/09 09:05:46;;;;;;;4.25;2.38;;;;;;;;;;4996473;28;20077;-74
2021/07/09 09:08:16;;;;;;;3.03;2.00;;;;;;;;;;4996732;28;20058;-72
2021/07/09 09:10:45;;;;;;;2.55;1.58;;;;;;;;;;4996008;28;20046;-75
2021/07/09 09:13:13;;;;;;;4.25;1.83;;;;;;;;;;4975545;28;20544;-74
2021/07/09 09:15:42;;;;;;;3.00;1.65;;;;;;;;;;4976808;28;20054;-74
2021/07/09 09:18:22;;;;;;;3.47;1.55;;;;;;;;;;4975357;28;20089;-75
2021/07/09 09:21:00;;;;;;;3.08;1.73;;;;;;;;;;4977206;28;20089;-74
2021/07/09 09:23:31;;;;;;;3.08;1.90;;;;;;;;;;4975160;28;20082;-74
2021/07/09 09:25:59;;;;;;;4.25;1.60;;;;;;;;;;4974302;28;20085;-74
2021/07/09 09:28:26;;;;;;;2.80;1.73;;;;;;;;;;4974122;28;20115;-75
2021/07/09 09:30:54;;;;;;;3.50;1.55;;;;;;;;;;4974304;28;20496;-76
2021/07/09 09:33:22;;;;;;;2.33;1.40;;;;;;;;;;4974237;28;20658;-73
2021/07/09 09:35:54;;;;;;;3.22;1.70;;;;;;;;;;4974283;28;20102;-73
2021/07/09 09:38:28;;;;;;;3.58;1.40;;;;;;;;;;4992471;28;20451;-74
2021/07/09 09:40:56;;;;;;;2.58;1.50;;;;;;;;;;4992107;28;20069;-74
2021/07/09 09:43:24;;;;;;;2.13;1.35;;;;;;;;;;4993090;28;20082;-75
2021/07/09 09:46:03;;;;;;;2.25;1.38;;;;;;;;;;4992502;28;20677;-74
2021/07/09 09:48:44;;;;;;;3.03;1.40;;;;;;;;;;4993116;28;20081;-74
2021/07/09 09:51:26;;;;;;;3.10;1.60;;;;;;;;;;4992648;28;20455;-75
2021/07/09 09:53:55;;;;;;;2.10;1.42;;;;;;;;;;4993008;28;20073;-73
2021/07/09 09:56:37;;;;;;;3.08;1.83;;;;;;;;;;4992537;28;20128;-73
2021/07/09 09:59:15;;;;;;;3.92;1.80;;;;;;;;;;4992383;28;20043;-75
2021/07/09 10:01:53;;;;;;;4.13;2.40;;;;;;;;;;5010968;28;20081;-74
2021/07/09 10:04:20;;;;;;;3.10;2.00;;;;;;;;;;5012026;28;20112;-74
2021/07/09 10:06:49;;;;;;;4.60;2.20;;;;;;;;;;5013537;28;20077;-75
2021/07/09 10:09:19;;;;;;;3.63;2.20;;;;;;;;;;5012716;28;20100;-75
2021/07/09 10:11:46;;;;;;;3.58;2.42;;;;;;;;;;5012692;28;20081;-75
2021/07/09 10:14:15;;;;;;;3.67;2.40;;;;;;;;;;5013710;28;20050;-74
2021/07/09 10:16:43;;;;;;;4.10;2.30;;;;;;;;;;5019873;28;20134;-76
2021/07/09 10:19:12;;;;;;;3.15;2.20;;;;;;;;;;5021067;28;20041;-75
2021/07/09 10:21:40;;;;;;;4.25;2.92;;;;;;;;;;5018705;28;20065;-75
2021/07/09 10:24:08;;;;;;;3.83;2.80;;;;;;;;;;5013177;28;20072;-75
2021/07/09 10:26:44;;;;;;;4.57;2.75;;;;;;;;;;4976590;28;20089;-75
2021/07/09 10:29:14;;;;;;;4.07;2.60;;;;;;;;;;4975289;28;20049;-76
2021/07/09 10:31:43;;;;;;;3.75;2.70;;;;;;;;;;4974175;28;20081;-75
2021/07/09 10:34:31;;;;;;;4.25;2.95;;;;;;;;;;4980655;28;20080;-76
2021/07/09 10:37:01;;;;;;;3.55;2.40;;;;;;;;;;4992831;28;20096;-76
2021/07/09 10:39:35;;;;;;;3.35;2.38;;;;;;;;;;4994109;28;20050;-79
2021/07/09 10:42:21;;;;;;;4.00;2.88;;;;;;;;;;4989049;28;20062;-79
2021/07/09 10:45:08;;;;;;;4.68;3.03;;;;;;;;;;4972455;28;20086;-77
2021/07/09 10:47:46;;;;;;;4.15;3.20;;;;;;;;;;4976134;28;20059;-78
2021/07/09 10:50:15;;;;;;;5.03;3.28;;;;;;;;;;4975847;28;20043;-78
2021/07/09 10:52:50;;;;;;;5.05;3.42;;;;;;;;;;4976722;28;20051;-78
2021/07/09 10:55:46;;;;;;;4.60;3.47;;;;;;;;;;4977977;28;20105;-78
2021/07/09 10:58:39;;;;;;;6.32;4.10;;;;;;;;;;4974756;28;20086;-77
2021/07/09 11:01:21;;;;;;;5.18;3.42;;;;;;;;;;4985679;28;20057;-76
2021/07/09 11:03:50;;;;;;;5.50;3.40;;;;;;;;;;4994632;28;20046;-79
2021/07/09 11:06:19;;;;;;;5.00;3.88;;;;;;;;;;4994696;28;20050;-78
2021/07/09 11:08:54;;;;;;;8.38;4.35;;;;;;;;;;4995379;28;20050;-78
2021/07/09 11:11:32;;;;;;;5.13;3.75;;;;;;;;;;5000015;28;20559;-78
2021/07/09 11:14:01;;;;;;;5.05;3.83;;;;;;;;;;5017470;28;20104;-77
2021/07/09 11:16:31;;;;;;;6.38;4.35;;;;;;;;;;5015068;28;20545;-77
2021/07/09 11:19:03;;;;;;;6.68;4.32;;;;;;;;;;5015503;28;20058;-77
2021/07/09 11:21:56;;;;;;;6.60;4.43;;;;;;;;;;5013839;28;20133;-77
2021/07/09 11:24:25;;;;;;;6.30;4.85;;;;;;;;;;5012770;28;20608;-78
2021/07/09 11:26:54;;;;;;;5.85;4.28;;;;;;;;;;5014033;28;20462;-78
2021/07/09 11:29:29;;;;;;;5.78;4.05;;;;;;;;;;5014730;28;20050;-78
2021/07/09 11:31:58;;;;;;;5.28;3.97;;;;;;;;;;5013543;28;20061;-78
2021/07/09 11:34:27;;;;;;;5.55;4.10;;;;;;;;;;5014775;28;20049;-78
2021/07/09 11:36:55;;;;;;;7.55;5.05;;;;;;;;;;5013802;28;20092;-77
2021/07/09 11:39:24;;;;;;;8.20;5.05;;;;;;;;;;5014382;28;20046;-78
2021/07/09 11:41:56;;;;;;;5.78;4.10;;;;;;;;;;5013656;28;20078;-77
2021/07/09 11:44:27;;;;;;;5.32;4.13;;;;;;;;;;5013858;28;20088;-77
2021/07/09 11:46:54;;;;;;;;;;;;;;;;;;5012926;28;20050;-77
2021/07/09 11:49:23;;;;;;;5.22;3.95;;;;;;;;;;5013207;28;19952;-76
2021/07/09 11:51:51;;;;;;;6.70;4.55;;;;;;;;;;5013257;28;20042;-77
2021/07/09 11:54:26;;;;;;;5.05;3.55;;;;;;;;;;5013787;28;20050;-77
2021/07/09 11:56:55;;;;;;;4.75;3.90;;;;;;;;;;5012768;28;20045;-78
2021/07/09 11:59:22;;;;;;;4.78;3.90;;;;;;;;;;5013611;28;20085;-79
2021/07/09 12:02:21;;;;;;;5.82;4.35;;;;;;;;;;4996725;28;20046;-78
2021/07/09 12:04:52;;;;;;;5.25;4.03;;;;;;;;;;4933374;29;20116;-77
2021/07/09 12:07:21;;;;;;;5.82;4.20;;;;;;;;;;4981633;28;20077;-75
2021/07/09 12:09:50;;;;;;;6.03;3.90;;;;;;;;;;4995778;28;20105;-77
2021/07/09 12:12:17;;;;;;;6.10;3.80;;;;;;;;;;5007007;28;20308;-77
2021/07/09 12:14:55;;;;;;;5.80;4.28;;;;;;;;;;5015883;28;20134;-78
2021/07/09 12:17:25;;;;;;;5.80;4.45;;;;;;;;;;5017208;28;20100;-78
2021/07/09 12:19:55;;;;;;;6.18;4.03;;;;;;;;;;5014794;28;20081;-80
2021/07/09 12:22:23;;;;;;;4.80;4.03;;;;;;;;;;5013966;28;20575;-77
2021/07/09 12:24:51;;;;;;;6.20;4.22;;;;;;;;;;5013676;28;20066;-78
2021/07/09 12:27:20;;;;;;;6.70;4.65;;;;;;;;;;5014153;28;20069;-78
2021/07/09 12:29:47;;;;;;;6.00;4.22;;;;;;;;;;5015587;28;20054;-76
2021/07/09 12:32:14;;;;;;;5.57;4.40;;;;;;;;;;5014247;28;20435;-76
2021/07/09 12:34:42;;;;;;;6.50;5.13;;;;;;;;;;5014262;28;20045;-79
2021/07/09 12:37:09;;;;;;;7.90;5.10;;;;;;;;;;5013091;28;20462;-78
2021/07/09 12:39:35;;;;;;;7.05;5.30;;;;;;;;;;5013800;28;20081;-77
2021/07/09 12:42:11;;;;;;;5.90;5.30;;;;;;;;;;5013074;28;20069;-76
2021/07/09 12:44:38;;;;;;;8.60;4.85;;;;;;;;;;5013133;28;20042;-76
2021/07/09 12:47:05;;;;;;;5.57;4.70;;;;;;;;;;5013434;28;20495;-77
2021/07/09 12:49:32;;;;;;;7.30;4.93;;;;;;;;;;5014668;28;20219;-79
2021/07/09 12:52:06;;;;;;;8.38;4.47;;;;;;;;;;5014007;28;20042;-77
2021/07/09 12:54:33;;;;;;;6.20;4.78;;;;;;;;;;5013585;28;20089;-77
2021/07/09 12:57:02;;;;;;;7.07;5.00;;;;;;;;;;5013380;28;20042;-76
2021/07/09 12:59:29;;;;;;;7.10;4.97;;;;;;;;;;5013754;28;20054;-77
2021/07/09 13:02:00;;;;;;;6.18;4.72;;;;;;;;;;4997161;28;20046;-78
2021/07/09 13:04:28;;;;;;;9.70;5.70;;;;;;;;;;4994074;28;20500;-77
2021/07/09 13:07:09;;;;;;;7.00;5.90;;;;;;;;;;4993743;28;20062;-77
2021/07/09 13:09:36;;;;;;;8.43;6.13;;;;;;;;;;4994042;28;20073;-76
2021/07/09 13:12:14;;;;;;;6.03;4.95;;;;;;;;;;5003750;28;20088;-77
2021/07/09 13:14:53;;;;;;;9.43;6.28;;;;;;;;;;5014308;28;20630;-77
2021/07/09 13:17:21;;;;;;;5.97;4.93;;;;;;;;;;5015910;28;20065;-77
2021/07/09 13:19:57;;;;;;;6.47;4.97;;;;;;;;;;5015764;28;20089;-77
2021/07/09 13:22:33;;;;;;;5.93;4.93;;;;;;;;;;5016223;28;20042;-77
2021/07/09 13:25:11;;;;;;;6.00;4.80;;;;;;;;;;5016657;28;20459;-76
2021/07/09 13:27:38;;;;;;;6.90;5.22;;;;;;;;;;5024682;28;20046;-76
2021/07/09 13:30:08;;;;;;;5.75;4.70;;;;;;;;;;5025145;28;20072;-76
2021/07/09 13:32:38;;;;;;;6.97;4.63;;;;;;;;;;5005030;28;20069;-77
2021/07/09 13:35:09;;;;;;;6.47;4.95;;;;;;;;;;5008946;28;20096;-78
2021/07/09 13:37:39;;;;;;;5.57;4.45;;;;;;;;;;5004120;28;20050;-77
2021/07/09 13:40:07;;;;;;;6.45;4.95;;;;;;;;;;4989427;28;20100;-76
2021/07/09 13:42:34;;;;;;;5.70;4.43;;;;;;;;;;5014731;28;20412;-76
2021/07/09 13:45:03;;;;;;;5.93;4.82;;;;;;;;;;5013999;28;20049;-76
2021/07/09 13:47:30;;;;;;;6.78;4.85;;;;;;;;;;5008412;28;20631;-74
2021/07/09 13:49:57;;;;;;;6.15;4.70;;;;;;;;;;4995011;28;20085;-77
2021/07/09 13:52:23;;;;;;;6.57;4.30;;;;;;;;;;4993439;28;20089;-76
2021/07/09 13:54:52;;;;;;;6.05;4.78;;;;;;;;;;4993539;28;20154;-77
2021/07/09 13:57:19;;;;;;;4.90;4.00;;;;;;;;;;4995246;28;20046;-76
2021/07/09 13:59:45;;;;;;;6.30;3.97;;;;;;;;;;4995348;28;20092;-77
2021/07/09 14:02:12;;;;;;;4.78;3.75;;;;;;;;;;4995515;28;20082;-77
2021/07/09 14:04:39;;;;;;;5.93;4.22;;;;;;;;;;4994809;28;20050;-77
2021/07/09 14:07:07;;;;;;;5.63;3.70;;;;;;;;;;4995270;28;20086;-77
2021/07/09 14:09:35;;;;;;;5.97;3.80;;;;;;;;;;4994580;28;20085;-77
2021/07/09 14:12:04;;;;;;;5.20;3.80;;;;;;;;;;5004020;28;20495;-77
2021/07/09 14:14:31;;;;;;;5.03;3.42;;;;;;;;;;5013715;28;20085;-76
2021/07/09 14:16:58;;;;;;;4.50;3.22;;;;;;;;;;5014200;28;20041;-77
2021/07/09 14:19:25;;;;;;;4.90;3.30;;;;;;;;;;5016047;28;20084;-77
2021/07/09 14:21:51;;;;;;;4.90;3.50;;;;;;;;;;5015261;28;20077;-76
2021/07/09 14:24:18;;;;;;;5.10;3.42;;;;;;;;;;5015536;28;20049;-77
2021/07/09 14:26:45;;;;;;;5.60;3.53;;;;;;;;;;5014678;28;20088;-77
2021/07/09 14:29:14;;;;;;;5.68;3.75;;;;;;;;;;5014721;28;20108;-75
2021/07/09 14:31:41;;;;;;;6.72;3.80;;;;;;;;;;5002986;28;20054;-76
2021/07/09 14:34:08;;;;;;;4.68;3.65;;;;;;;;;;5017867;23;20073;-74
2021/07/09 14:36:34;;;;;;;5.95;3.30;;;;;;;;;;5009819;28;20054;-74
2021/07/09 14:39:02;;;;;;;4.43;3.38;;;;;;;;;;5011653;28;20487;-75
2021/07/09 14:41:29;;;;;;;4.68;3.33;;;;;;;;;;5011550;28;20049;-74
2021/07/09 14:43:56;;;;;;;4.15;3.05;;;;;;;;;;5011359;28;20057;-73
2021/07/09 14:46:24;;;;;;;5.43;3.55;;;;;;;;;;5011507;28;20084;-74
2021/07/09 14:48:50;;;;;;;5.32;3.70;;;;;;;;;;5011777;28;20081;-73
2021/07/09 14:51:17;;;;;;;5.07;3.15;;;;;;;;;;5011536;28;20506;-74
2021/07/09 14:53:44;;;;;;;5.75;4.15;;;;;;;;;;5011563;28;21042;-74
2021/07/09 14:56:11;;;;;;;5.28;3.28;;;;;;;;;;5013547;28;20103;-73
2021/07/09 14:58:37;;;;;;;4.70;3.30;;;;;;;;;;5013345;28;20088;-73
2021/07/09 15:01:04;;;;;;;4.82;3.30;;;;;;;;;;5003200;28;20082;-73
2021/07/09 15:03:32;;;;;;;3.92;2.92;;;;;;;;;;4994064;28;20054;-73